Time;durP1;ratioP1;P1;durP2;ratioP2;P2;SDS_P1;SDS_P2;PMS_P1;PMS_P2;Temp;Humidity;BMP_temperature;BMP_pressure;BME280_temperature;BME280_humidity;BME280_pressure;Samples;Min_cycle;Max_cycle;Signal;HPM_P1;HPM_P2
2021/09/20 00:01:44;;;;;;;14.50;9.90;;;12.30;99.90;;;;;;5036470;28;20049;-74
2021/09/20 00:04:11;;;;;;;17.80;10.75;;;12.10;99.90;;;;;;5036409;28;20040;-73
2021/09/20 00:06:38;;;;;;;15.38;10.50;;;12.10;99.90;;;;;;5035857;28;20128;-74
2021/09/20 00:09:05;;;;;;;17.05;10.48;;;12.40;99.90;;;;;;5039775;28;20137;-73
2021/09/20 00:11:32;;;;;;;16.33;10.27;;;12.40;99.90;;;;;;5036522;28;21161;-74
2021/09/20 00:13:59;;;;;;;15.82;10.30;;;12.40;99.90;;;;;;5038841;28;20072;-73
2021/09/20 00:16:26;;;;;;;15.68;10.93;;;12.30;99.90;;;;;;5037656;28;20106;-73
2021/09/20 00:18:55;;;;;;;16.30;10.52;;;12.20;99.90;;;;;;5043856;28;20120;-74
2021/09/20 00:21:23;;;;;;;15.23;9.98;;;12.20;99.90;;;;;;5042324;28;20045;-73
2021/09/20 00:23:51;;;;;;;17.10;10.93;;;12.30;99.90;;;;;;5044297;28;20084;-73
2021/09/20 00:26:18;;;;;;;16.90;10.30;;;12.30;99.90;;;;;;5043420;28;20048;-73
2021/09/20 00:28:45;;;;;;;16.80;10.77;;;12.30;99.90;;;;;;5044369;28;21458;-73
2021/09/20 00:31:12;;;;;;;17.33;11.20;;;12.30;99.90;;;;;;5043113;28;20072;-73
2021/09/20 00:33:39;;;;;;;15.73;10.65;;;12.30;99.90;;;;;;5044188;28;20056;-73
2021/09/20 00:36:07;;;;;;;17.02;11.30;;;12.40;99.90;;;;;;5042591;28;20131;-73
2021/09/20 00:38:34;;;;;;;16.13;10.50;;;12.30;99.90;;;;;;5045524;28;20486;-73
2021/09/20 00:41:04;;;;;;;16.73;10.98;;;12.30;99.90;;;;;;5043011;28;20041;-73
2021/09/20 00:43:31;;;;;;;15.65;10.98;;;12.20;99.90;;;;;;5042952;28;20137;-73
2021/09/20 00:45:58;;;;;;;17.40;9.95;;;12.30;99.90;;;;;;5043256;28;20092;-72
2021/09/20 00:48:25;;;;;;;15.73;10.68;;;12.40;99.90;;;;;;5043353;28;20495;-73
2021/09/20 00:50:53;;;;;;;18.65;10.35;;;12.30;99.90;;;;;;5043789;28;20099;-73
2021/09/20 00:53:21;;;;;;;17.65;11.25;;;12.30;99.90;;;;;;5044489;28;20048;-73
2021/09/20 00:55:48;;;;;;;15.27;10.07;;;12.30;99.90;;;;;;5041869;28;20088;-73
2021/09/20 00:58:15;;;;;;;18.98;11.40;;;12.30;99.90;;;;;;5038613;28;20080;-74
2021/09/20 01:00:43;;;;;;;15.65;10.30;;;12.30;99.90;;;;;;5037803;28;20076;-73
2021/09/20 01:03:10;;;;;;;19.95;10.60;;;12.30;99.90;;;;;;5039882;28;20049;-73
2021/09/20 01:05:37;;;;;;;18.20;10.98;;;12.30;99.90;;;;;;5043059;28;20541;-73
2021/09/20 01:08:04;;;;;;;15.88;10.30;;;12.30;99.90;;;;;;5045047;28;20125;-73
2021/09/20 01:10:33;;;;;;;18.73;12.05;;;12.30;99.90;;;;;;5043914;28;20048;-73
2021/09/20 01:13:00;;;;;;;17.25;10.45;;;12.10;99.90;;;;;;5042798;28;20048;-73
2021/09/20 01:15:27;;;;;;;15.23;10.38;;;12.00;99.90;;;;;;5044114;28;20045;-73
2021/09/20 01:17:54;;;;;;;16.02;10.23;;;12.00;99.90;;;;;;5044096;28;20049;-73
2021/09/20 01:20:22;;;;;;;16.60;10.68;;;12.00;99.90;;;;;;5047079;28;20529;-73
2021/09/20 01:22:58;;;;;;;17.95;10.63;;;12.10;99.90;;;;;;5045904;28;20063;-74
2021/09/20 01:25:25;;;;;;;14.45;9.65;;;12.20;99.90;;;;;;5044282;28;20605;-74
2021/09/20 01:27:53;;;;;;;18.40;11.00;;;12.30;99.90;;;;;;5044239;28;20067;-73
2021/09/20 01:30:20;;;;;;;17.90;11.05;;;12.30;99.90;;;;;;5041511;28;20140;-73
2021/09/20 01:32:47;;;;;;;16.73;10.93;;;12.20;99.90;;;;;;5043258;28;20314;-73
2021/09/20 01:35:14;;;;;;;15.43;10.60;;;12.10;99.90;;;;;;5043312;28;20137;-74
2021/09/20 01:37:41;;;;;;;16.70;11.10;;;12.10;99.90;;;;;;5044790;28;20564;-74
2021/09/20 01:40:12;;;;;;;17.58;11.20;;;12.00;99.90;;;;;;5039470;28;21223;-73
2021/09/20 01:42:39;;;;;;;16.90;11.70;;;12.00;99.90;;;;;;5036190;28;20095;-73
2021/09/20 01:45:07;;;;;;;16.73;11.02;;;11.90;99.90;;;;;;5039166;28;20500;-74
2021/09/20 01:47:34;;;;;;;16.40;11.30;;;12.00;99.90;;;;;;5043723;28;20068;-74
2021/09/20 01:50:01;;;;;;;19.83;11.55;;;12.00;99.90;;;;;;5042877;28;20425;-74
2021/09/20 01:52:28;;;;;;;16.17;11.05;;;12.00;99.90;;;;;;5044503;28;20076;-74
2021/09/20 01:54:57;;;;;;;18.20;11.45;;;12.00;99.90;;;;;;5041049;28;20416;-73
2021/09/20 01:57:26;;;;;;;17.30;11.07;;;12.00;99.90;;;;;;5042032;28;20052;-74
2021/09/20 01:59:53;;;;;;;16.48;11.23;;;12.00;99.90;;;;;;5045073;28;20044;-74
2021/09/20 02:02:20;;;;;;;15.43;10.55;;;11.80;99.90;;;;;;5041870;28;20053;-73
2021/09/20 02:04:47;;;;;;;17.48;11.10;;;11.80;99.90;;;;;;5043009;28;20090;-73
2021/09/20 02:07:14;;;;;;;18.98;11.55;;;11.90;99.90;;;;;;5043010;28;20080;-73
2021/09/20 02:09:41;;;;;;;17.48;10.82;;;11.90;99.90;;;;;;5043493;28;20142;-73
2021/09/20 02:12:08;;;;;;;17.65;11.20;;;11.90;99.90;;;;;;5042005;28;20052;-73
2021/09/20 02:14:37;;;;;;;18.73;11.43;;;11.90;99.90;;;;;;5045064;28;20072;-73
2021/09/20 02:17:04;;;;;;;18.75;11.18;;;11.80;99.90;;;;;;5039171;28;20840;-72
2021/09/20 02:19:31;;;;;;;18.20;11.38;;;11.80;99.90;;;;;;5035049;28;20489;-73
2021/09/20 02:21:58;;;;;;;18.88;11.02;;;11.70;99.90;;;;;;5033630;28;20125;-73
2021/09/20 02:24:25;;;;;;;16.70;10.95;;;11.80;99.90;;;;;;5033862;28;20484;-73
2021/09/20 02:26:52;;;;;;;19.10;10.15;;;11.80;99.90;;;;;;5035162;28;20048;-73
2021/09/20 02:29:19;;;;;;;17.08;11.02;;;11.80;99.90;;;;;;5033610;28;20864;-73
2021/09/20 02:31:48;;;;;;;15.85;11.10;;;11.80;99.90;;;;;;5033633;28;20477;-72
2021/09/20 02:34:15;;;;;;;17.58;11.07;;;11.80;99.90;;;;;;5034134;28;20048;-72
2021/09/20 02:36:42;;;;;;;15.43;9.90;;;11.70;99.90;;;;;;5033948;28;20105;-72
2021/09/20 02:39:09;;;;;;;18.38;11.82;;;11.70;99.90;;;;;;5031932;28;20098;-72
2021/09/20 02:41:36;;;;;;;14.43;9.95;;;11.70;99.90;;;;;;5035348;28;20504;-73
2021/09/20 02:44:03;;;;;;;17.67;10.52;;;11.80;99.90;;;;;;5041178;28;20071;-72
2021/09/20 02:46:30;;;;;;;15.23;10.40;;;11.70;99.90;;;;;;5035717;28;20493;-72
2021/09/20 02:48:59;;;;;;;17.90;11.23;;;11.80;99.90;;;;;;5033750;28;20511;-72
2021/09/20 02:51:26;;;;;;;16.95;10.98;;;11.70;99.90;;;;;;5033778;28;20106;-73
2021/09/20 02:53:53;;;;;;;18.48;11.02;;;11.70;99.90;;;;;;5035099;28;20048;-72
2021/09/20 02:56:20;;;;;;;16.83;11.23;;;11.70;99.90;;;;;;5033457;28;20525;-72
2021/09/20 02:58:47;;;;;;;16.17;10.48;;;11.70;99.90;;;;;;5033703;28;20072;-73
2021/09/20 03:01:17;;;;;;;16.67;11.65;;;11.60;99.90;;;;;;5033045;28;20086;-73
2021/09/20 03:03:44;;;;;;;18.38;12.32;;;11.70;99.90;;;;;;5036609;28;21395;-72
2021/09/20 03:06:12;;;;;;;18.35;11.93;;;11.70;99.90;;;;;;5032740;28;20067;-73
2021/09/20 03:08:39;;;;;;;16.92;10.80;;;11.60;99.90;;;;;;5041851;28;20109;-73
2021/09/20 03:11:06;;;;;;;17.45;10.63;;;11.60;99.90;;;;;;5039946;28;20048;-73
2021/09/20 03:13:33;;;;;;;17.65;11.20;;;11.70;99.90;;;;;;5040550;28;20130;-72
2021/09/20 03:16:00;;;;;;;16.98;10.80;;;11.60;99.90;;;;;;5040107;28;20127;-72
2021/09/20 03:18:27;;;;;;;16.77;10.63;;;11.60;99.90;;;;;;5040224;28;20097;-73
2021/09/20 03:20:54;;;;;;;16.42;10.70;;;11.60;99.90;;;;;;5039883;28;20048;-73
2021/09/20 03:23:22;;;;;;;16.38;9.93;;;11.60;99.90;;;;;;5039244;28;20042;-73
2021/09/20 03:25:49;;;;;;;17.00;10.77;;;11.70;99.90;;;;;;5038871;28;20084;-72
2021/09/20 03:28:16;;;;;;;17.27;11.63;;;11.70;99.90;;;;;;5039678;28;20067;-72
2021/09/20 03:30:43;;;;;;;15.75;10.70;;;11.70;99.90;;;;;;5041582;28;20561;-73
2021/09/20 03:33:10;;;;;;;17.13;11.20;;;11.70;99.90;;;;;;5040862;28;20969;-73
2021/09/20 03:35:37;;;;;;;18.05;11.20;;;11.70;99.90;;;;;;5038834;28;20048;-73
2021/09/20 03:38:04;;;;;;;15.65;10.32;;;11.70;99.90;;;;;;5040379;28;20498;-73
2021/09/20 03:40:33;;;;;;;16.75;10.75;;;11.60;99.90;;;;;;5040539;28;20048;-73
2021/09/20 03:43:00;;;;;;;17.75;10.80;;;11.50;99.90;;;;;;5039034;28;20083;-73
2021/09/20 03:45:30;;;;;;;17.05;11.55;;;11.60;99.90;;;;;;5041594;28;20049;-72
2021/09/20 03:47:57;;;;;;;16.92;10.60;;;11.60;99.90;;;;;;5040539;28;20138;-73
2021/09/20 03:50:24;;;;;;;19.35;11.63;;;11.70;99.90;;;;;;5040599;28;20550;-73
2021/09/20 03:52:52;;;;;;;15.15;11.00;;;11.60;99.90;;;;;;5044194;28;20432;-73
2021/09/20 03:55:19;;;;;;;17.48;11.02;;;11.60;99.90;;;;;;5041652;28;20102;-73
2021/09/20 03:57:47;;;;;;;17.80;10.75;;;11.60;99.90;;;;;;5044321;28;20505;-73
2021/09/20 04:00:15;;;;;;;17.58;10.35;;;11.60;99.90;;;;;;5042806;28;20080;-74
2021/09/20 04:02:42;;;;;;;17.65;11.00;;;11.60;99.90;;;;;;5044286;28;20125;-74
2021/09/20 04:05:10;;;;;;;17.15;11.23;;;11.60;99.90;;;;;;5042735;28;20083;-73
2021/09/20 04:07:39;;;;;;;16.35;10.77;;;11.60;99.90;;;;;;5044073;28;20044;-73
2021/09/20 04:10:08;;;;;;;17.65;11.23;;;11.60;99.90;;;;;;5043523;28;20126;-73
2021/09/20 04:12:35;;;;;;;18.38;11.70;;;11.60;99.90;;;;;;5043912;28;20044;-73
2021/09/20 04:15:04;;;;;;;17.23;10.82;;;11.60;99.90;;;;;;5042651;28;20053;-73
2021/09/20 04:17:31;;;;;;;15.15;10.23;;;11.60;99.90;;;;;;5042939;28;20175;-74
2021/09/20 04:19:58;;;;;;;16.70;11.35;;;11.60;99.90;;;;;;5042651;28;20497;-73
2021/09/20 04:22:25;;;;;;;17.73;10.35;;;11.60;99.90;;;;;;5044582;28;20140;-73
2021/09/20 04:24:52;;;;;;;16.80;11.13;;;11.70;99.90;;;;;;5042414;28;20106;-74
2021/09/20 04:27:20;;;;;;;20.23;11.00;;;11.60;99.90;;;;;;5041173;28;20131;-73
2021/09/20 04:29:48;;;;;;;15.77;10.80;;;11.60;99.90;;;;;;5041430;28;20406;-73
2021/09/20 04:32:16;;;;;;;16.30;10.82;;;11.60;99.90;;;;;;5040677;28;20049;-73
2021/09/20 04:34:43;;;;;;;17.95;11.00;;;11.70;99.90;;;;;;5043383;28;20087;-74
2021/09/20 04:37:10;;;;;;;16.13;9.88;;;11.60;99.90;;;;;;5044720;28;20087;-73
2021/09/20 04:39:37;;;;;;;18.00;11.57;;;11.60;99.90;;;;;;5046024;28;20072;-74
2021/09/20 04:42:04;;;;;;;16.63;11.07;;;11.70;99.90;;;;;;5042664;28;20129;-74
2021/09/20 04:44:31;;;;;;;16.75;11.30;;;11.60;99.90;;;;;;5042201;28;20055;-74
2021/09/20 04:46:58;;;;;;;16.63;10.60;;;11.60;99.90;;;;;;5035800;28;20588;-73
2021/09/20 04:49:27;;;;;;;16.13;10.25;;;11.60;99.90;;;;;;5040885;28;20049;-73
2021/09/20 04:51:54;;;;;;;18.83;10.90;;;11.60;99.90;;;;;;5036335;28;20135;-74
2021/09/20 04:54:21;;;;;;;16.33;10.35;;;11.60;99.90;;;;;;5034714;28;20110;-73
2021/09/20 04:56:48;;;;;;;17.52;11.25;;;11.60;99.90;;;;;;5037349;28;20080;-73
2021/09/20 04:59:15;;;;;;;16.88;10.60;;;11.60;99.90;;;;;;5042898;28;20452;-73
2021/09/20 05:01:42;;;;;;;15.75;10.70;;;11.60;99.90;;;;;;5041920;28;20106;-74
2021/09/20 05:04:10;;;;;;;15.95;10.30;;;11.60;99.90;;;;;;5043698;28;20138;-73
2021/09/20 05:06:38;;;;;;;16.65;9.98;;;11.50;99.90;;;;;;5042765;28;20149;-74
2021/09/20 05:09:07;;;;;;;18.58;10.98;;;11.60;99.90;;;;;;5043122;28;20072;-74
2021/09/20 05:11:34;;;;;;;18.67;10.68;;;11.60;99.90;;;;;;5041888;28;20480;-73
2021/09/20 05:14:01;;;;;;;15.70;9.95;;;11.50;99.90;;;;;;5042254;28;20105;-73
2021/09/20 05:16:28;;;;;;;16.58;9.95;;;11.50;99.90;;;;;;5043630;28;20123;-74
2021/09/20 05:18:55;;;;;;;14.80;10.20;;;11.70;99.90;;;;;;5044083;28;20751;-74
2021/09/20 05:21:22;;;;;;;17.10;9.07;;;11.60;99.90;;;;;;5043096;28;20512;-74
2021/09/20 05:23:51;;;;;;;17.83;10.20;;;11.60;99.90;;;;;;5043745;28;20146;-74
2021/09/20 05:26:18;;;;;;;22.77;10.27;;;11.60;99.90;;;;;;5041368;28;20098;-74
2021/09/20 05:28:46;;;;;;;14.07;9.25;;;11.60;99.90;;;;;;5039938;28;20375;-74
2021/09/20 05:31:13;;;;;;;17.80;9.43;;;11.70;99.90;;;;;;5037101;28;20045;-74
2021/09/20 05:33:40;;;;;;;14.77;8.98;;;11.70;99.90;;;;;;5039948;28;20365;-74
2021/09/20 05:36:08;;;;;;;14.68;8.98;;;11.60;99.90;;;;;;5040215;28;20059;-74
2021/09/20 05:38:35;;;;;;;18.60;8.68;;;11.60;99.90;;;;;;5041197;28;20108;-74
2021/09/20 05:41:04;;;;;;;15.30;8.68;;;11.50;99.90;;;;;;5043076;28;20394;-73
2021/09/20 05:43:31;;;;;;;17.48;8.98;;;11.50;99.90;;;;;;5044394;28;20040;-74
2021/09/20 05:49:29;;;;;;;18.30;8.57;;;11.60;99.90;;;;;;5007335;28;20132;-74
2021/09/20 05:51:57;;;;;;;18.73;9.27;;;11.60;99.90;;;;;;5016063;28;20140;-74
2021/09/20 05:54:27;;;;;;;17.27;9.13;;;11.70;99.90;;;;;;5045260;28;20045;-73
2021/09/20 05:56:56;;;;;;;17.85;10.13;;;11.60;99.90;;;;;;5042791;28;20053;-74
2021/09/20 05:59:23;;;;;;;18.85;9.95;;;11.70;99.90;;;;;;5042398;28;20493;-73
2021/09/20 06:01:50;;;;;;;18.13;8.85;;;11.70;99.90;;;;;;5042853;28;20515;-73
2021/09/20 06:04:17;;;;;;;17.00;8.77;;;11.70;99.90;;;;;;5045465;28;20102;-74
2021/09/20 06:06:44;;;;;;;19.60;8.90;;;11.60;99.90;;;;;;5044867;28;20114;-73
2021/09/20 06:09:11;;;;;;;16.88;9.07;;;11.70;99.90;;;;;;5044633;28;20506;-74
2021/09/20 06:11:38;;;;;;;17.80;9.80;;;11.80;99.90;;;;;;5044662;28;20314;-74
2021/09/20 06:14:06;;;;;;;23.67;9.55;;;11.80;99.90;;;;;;5045457;28;20106;-73
2021/09/20 06:16:33;;;;;;;20.58;9.25;;;11.80;99.90;;;;;;5044832;28;20456;-74
2021/09/20 06:19:01;;;;;;;17.25;8.63;;;11.70;99.90;;;;;;5044821;28;20118;-73
2021/09/20 06:21:28;;;;;;;21.83;9.65;;;11.60;99.90;;;;;;5045910;28;20040;-74
2021/09/20 06:23:55;;;;;;;13.27;8.65;;;11.70;99.90;;;;;;5047429;28;20464;-73
2021/09/20 06:26:22;;;;;;;15.77;9.07;;;11.80;99.90;;;;;;5044016;28;20098;-74
2021/09/20 06:28:49;;;;;;;14.35;8.88;;;11.80;99.90;;;;;;5046310;28;20098;-73
2021/09/20 06:31:17;;;;;;;15.20;9.00;;;11.80;99.90;;;;;;5043634;28;20098;-74
2021/09/20 06:33:45;;;;;;;16.75;9.23;;;11.80;99.90;;;;;;5044978;28;20145;-73
2021/09/20 06:36:11;;;;;;;25.92;8.88;;;11.90;99.90;;;;;;5043095;28;20088;-74
2021/09/20 06:38:38;;;;;;;13.25;8.93;;;11.70;99.90;;;;;;5043221;28;20081;-74
2021/09/20 06:41:05;;;;;;;15.40;8.90;;;11.80;99.90;;;;;;5045099;28;20200;-74
2021/09/20 06:43:32;;;;;;;15.15;8.70;;;11.80;99.90;;;;;;5046188;28;20044;-74
2021/09/20 06:45:59;;;;;;;17.23;9.27;;;11.90;99.90;;;;;;5042694;28;20052;-74
2021/09/20 06:48:28;;;;;;;16.70;8.82;;;12.00;99.90;;;;;;5046113;28;20102;-74
2021/09/20 06:50:55;;;;;;;16.15;9.18;;;12.00;99.90;;;;;;5044330;28;20056;-73
2021/09/20 06:53:22;;;;;;;18.27;9.43;;;12.00;99.90;;;;;;5043288;28;20520;-74
2021/09/20 06:55:49;;;;;;;21.10;9.18;;;12.00;99.90;;;;;;5044920;28;20056;-74
2021/09/20 06:58:16;;;;;;;17.15;9.38;;;12.00;99.90;;;;;;5044987;28;20102;-73
2021/09/20 07:00:42;;;;;;;16.27;9.48;;;12.10;99.90;;;;;;5044313;28;20186;-73
2021/09/20 07:03:12;;;;;;;12.38;8.73;;;12.10;99.90;;;;;;5045894;28;20110;-73
2021/09/20 07:05:40;;;;;;;15.23;8.82;;;12.20;99.90;;;;;;5045194;28;20415;-74
2021/09/20 07:08:07;;;;;;;18.98;9.02;;;12.10;99.90;;;;;;5043985;28;21510;-74
2021/09/20 07:10:34;;;;;;;16.92;9.52;;;12.20;99.90;;;;;;5043947;28;20048;-74
2021/09/20 07:13:02;;;;;;;15.52;8.85;;;12.30;99.90;;;;;;5044992;28;20094;-74
2021/09/20 07:15:29;;;;;;;18.50;9.57;;;12.30;99.90;;;;;;5044276;28;20141;-74
2021/09/20 07:17:56;;;;;;;17.90;8.82;;;12.30;99.90;;;;;;5044071;28;20102;-74
2021/09/20 07:20:23;;;;;;;16.83;8.57;;;12.40;99.90;;;;;;5044437;28;20118;-74
2021/09/20 07:22:51;;;;;;;15.52;7.80;;;12.40;99.90;;;;;;5044131;28;20455;-74
2021/09/20 07:25:18;;;;;;;14.30;7.97;;;12.40;99.90;;;;;;5040568;28;20071;-73
2021/09/20 07:27:45;;;;;;;18.65;7.90;;;12.40;99.90;;;;;;5045828;28;20080;-73
2021/09/20 07:30:17;;;;;;;16.27;7.63;;;12.50;99.90;;;;;;5043239;28;20052;-74
2021/09/20 07:32:44;;;;;;;12.23;7.68;;;12.40;99.90;;;;;;5044866;28;21125;-74
2021/09/20 07:35:12;;;;;;;14.25;8.25;;;12.30;99.90;;;;;;5042900;28;20048;-73
2021/09/20 07:37:40;;;;;;;12.48;7.10;;;12.40;99.90;;;;;;5044129;28;20054;-74
2021/09/20 07:40:10;;;;;;;12.40;7.38;;;12.50;99.90;;;;;;5044364;28;20090;-74
2021/09/20 07:42:37;;;;;;;12.43;7.28;;;12.50;99.90;;;;;;5043764;28;21080;-74
2021/09/20 07:45:04;;;;;;;13.25;7.18;;;12.60;99.90;;;;;;5042958;28;20102;-75
2021/09/20 07:47:31;;;;;;;13.32;8.05;;;12.70;99.90;;;;;;5044462;28;20052;-74
2021/09/20 07:49:58;;;;;;;14.88;7.32;;;12.80;99.90;;;;;;5044545;28;20184;-73
2021/09/20 07:52:25;;;;;;;11.35;6.80;;;12.80;99.90;;;;;;5044640;28;20084;-74
2021/09/20 07:54:52;;;;;;;13.05;6.95;;;12.90;99.90;;;;;;5044123;28;20079;-74
2021/09/20 07:57:20;;;;;;;12.32;6.90;;;12.90;99.90;;;;;;5044448;28;20051;-73
2021/09/20 07:59:47;;;;;;;12.45;7.40;;;13.10;99.90;;;;;;5041469;28;20777;-74
2021/09/20 08:02:14;;;;;;;10.00;6.60;;;13.10;99.90;;;;;;5042816;28;20049;-74
2021/09/20 08:04:41;;;;;;;13.55;6.85;;;13.20;99.90;;;;;;5044869;28;20114;-74
2021/09/20 08:07:08;;;;;;;9.13;5.63;;;13.30;99.90;;;;;;5041895;28;20048;-74
2021/09/20 08:09:35;;;;;;;11.35;5.97;;;13.00;99.90;;;;;;5041710;28;20595;-74
2021/09/20 08:12:02;;;;;;;9.90;5.85;;;12.90;99.90;;;;;;5043791;28;20098;-74
2021/09/20 08:14:31;;;;;;;13.85;6.70;;;13.20;99.90;;;;;;5043639;28;20041;-74
2021/09/20 08:16:58;;;;;;;9.88;5.85;;;13.20;99.90;;;;;;5043057;28;20061;-74
2021/09/20 08:19:25;;;;;;;8.27;5.13;;;13.40;99.90;;;;;;5040640;28;20449;-73
2021/09/20 08:21:52;;;;;;;11.40;5.45;;;13.30;99.90;;;;;;5044883;28;20076;-74
2021/09/20 08:24:19;;;;;;;8.80;5.38;;;13.30;99.90;;;;;;5042680;28;20575;-74
2021/09/20 08:26:46;;;;;;;9.43;5.50;;;13.40;99.90;;;;;;5043508;28;20057;-74
2021/09/20 08:29:13;;;;;;;9.63;5.65;;;13.30;99.90;;;;;;5043125;28;20053;-73
2021/09/20 08:31:42;;;;;;;10.13;5.68;;;13.40;99.90;;;;;;5046242;28;20044;-74
2021/09/20 08:34:09;;;;;;;10.70;5.88;;;13.70;99.90;;;;;;5045419;28;20141;-74
2021/09/20 08:36:36;;;;;;;8.65;5.07;;;13.80;99.90;;;;;;5043833;28;20041;-74
2021/09/20 08:39:03;;;;;;;15.00;5.45;;;14.00;99.90;;;;;;5047446;28;20057;-76
2021/09/20 08:41:31;;;;;;;8.77;5.32;;;14.00;99.90;;;;;;5048713;28;20049;-74
2021/09/20 08:43:58;;;;;;;8.88;5.55;;;14.10;99.90;;;;;;5047170;28;20048;-73
2021/09/20 08:46:26;;;;;;;10.82;5.55;;;14.00;99.90;;;;;;5045216;28;20080;-74
2021/09/20 08:48:54;;;;;;;11.10;5.40;;;14.30;99.90;;;;;;5046268;28;20060;-74
2021/09/20 08:51:21;;;;;;;9.52;4.93;;;14.10;99.90;;;;;;5046488;28;20233;-74
2021/09/20 08:53:50;;;;;;;10.45;5.13;;;14.10;99.90;;;;;;5045031;28;20044;-74
2021/09/20 08:56:18;;;;;;;9.45;4.95;;;14.20;99.90;;;;;;5042673;28;20686;-74
2021/09/20 08:58:45;;;;;;;8.43;4.70;;;14.40;99.90;;;;;;5046940;28;20101;-74
2021/09/20 09:01:12;;;;;;;7.20;4.25;;;14.50;99.90;;;;;;5045528;28;20053;-75
2021/09/20 09:03:40;;;;;;;8.57;5.00;;;14.60;99.90;;;;;;5045306;28;20114;-74
2021/09/20 09:06:08;;;;;;;7.47;5.00;;;14.50;99.90;;;;;;5043134;28;20084;-76
2021/09/20 09:08:38;;;;;;;9.52;4.75;;;14.70;99.90;;;;;;5046745;28;20048;-74
2021/09/20 09:11:06;;;;;;;12.90;6.20;;;14.70;99.90;;;;;;5044790;28;20091;-76
2021/09/20 09:13:36;;;;;;;9.38;4.72;;;15.00;99.90;;;;;;5045655;28;20045;-74
2021/09/20 09:16:13;;;;;;;9.05;5.28;;;14.90;99.90;;;;;;5044773;28;20261;-74
2021/09/20 09:19:04;;;;;;;9.27;5.07;;;14.80;99.90;;;;;;5045685;28;20048;-74
2021/09/20 09:21:35;;;;;;;9.30;4.80;;;15.10;99.90;;;;;;5045389;28;20349;-74
2021/09/20 09:24:05;;;;;;;10.38;5.40;;;15.30;99.90;;;;;;5045033;28;20131;-74
2021/09/20 09:26:32;;;;;;;10.27;5.47;;;15.40;99.90;;;;;;5046713;28;20040;-74
2021/09/20 09:29:14;;;;;;;8.80;5.18;;;15.40;99.90;;;;;;5048119;28;20581;-74
2021/09/20 09:31:50;;;;;;;9.80;5.57;;;15.60;99.90;;;;;;5046297;28;20104;-76
2021/09/20 09:34:20;;;;;;;7.43;4.78;;;15.60;99.90;;;;;;5044901;28;20844;-75
2021/09/20 09:36:49;;;;;;;6.93;4.45;;;15.50;99.90;;;;;;5044749;28;20103;-75
2021/09/20 09:39:28;;;;;;;8.57;4.90;;;15.70;99.90;;;;;;5045081;28;20048;-73
2021/09/20 09:41:55;;;;;;;7.28;4.53;;;15.50;99.90;;;;;;5043179;28;20068;-74
2021/09/20 09:44:29;;;;;;;6.93;4.47;;;15.50;99.90;;;;;;5045516;28;20044;-73
2021/09/20 09:46:56;;;;;;;9.10;5.07;;;15.70;99.90;;;;;;5044105;28;20540;-74
2021/09/20 09:49:25;;;;;;;7.70;4.80;;;15.50;99.90;;;;;;5043194;28;20076;-75
2021/09/20 09:52:01;;;;;;;7.28;4.43;;;15.40;99.90;;;;;;5045280;28;20052;-74
2021/09/20 09:54:30;;;;;;;9.65;4.45;;;15.80;99.90;;;;;;5044181;28;20523;-74
2021/09/20 09:57:19;;;;;;;7.65;4.60;;;15.80;99.90;;;;;;5042047;28;20049;-74
2021/09/20 09:59:55;;;;;;;8.15;4.85;;;15.90;99.90;;;;;;5042441;28;20044;-74
2021/09/20 10:02:26;;;;;;;7.70;4.63;;;15.90;99.90;;;;;;5042198;28;20049;-74
2021/09/20 10:04:56;;;;;;;10.63;5.07;;;16.10;99.90;;;;;;5042516;28;20147;-74
2021/09/20 10:07:26;;;;;;;9.13;5.50;;;16.10;99.90;;;;;;5038369;28;20083;-74
2021/09/20 10:09:54;;;;;;;7.60;4.40;;;15.90;99.90;;;;;;5044109;28;20044;-75
2021/09/20 10:12:25;;;;;;;7.35;4.30;;;16.20;99.90;;;;;;5042943;28;20057;-74
2021/09/20 10:14:55;;;;;;;6.68;4.40;;;16.60;99.90;;;;;;5044040;28;20080;-74
2021/09/20 10:17:23;;;;;;;8.15;4.70;;;16.60;99.90;;;;;;5040257;28;20749;-75
2021/09/20 10:19:51;;;;;;;7.63;4.47;;;16.60;99.90;;;;;;5045131;28;20040;-74
2021/09/20 10:22:19;;;;;;;8.57;4.50;;;16.50;99.90;;;;;;5042525;28;20107;-74
2021/09/20 10:24:50;;;;;;;7.43;4.40;;;16.40;99.90;;;;;;5041051;28;20083;-75
2021/09/20 10:27:19;;;;;;;7.88;4.63;;;16.90;99.90;;;;;;5043932;28;20056;-74
2021/09/20 10:29:49;;;;;;;8.68;4.30;;;16.90;99.90;;;;;;5045365;28;21093;-76
2021/09/20 10:32:17;;;;;;;6.90;4.30;;;17.50;99.90;;;;;;5043957;28;20049;-74
2021/09/20 10:34:44;;;;;;;7.30;4.13;;;17.50;99.90;;;;;;5045619;28;20084;-74
2021/09/20 10:37:13;;;;;;;6.25;4.07;;;17.70;99.90;;;;;;5034745;28;20137;-75
2021/09/20 10:40:04;;;;;;;7.22;4.20;;;18.10;99.90;;;;;;5041832;28;20044;-75
2021/09/20 10:43:06;;;;;;;6.93;4.25;;;18.30;99.90;;;;;;5043557;28;20055;-75
2021/09/20 10:45:53;;;;;;;8.30;4.00;;;18.60;99.90;;;;;;5043501;28;20058;-74
2021/09/20 10:48:46;;;;;;;6.65;3.55;;;18.80;99.90;;;;;;5039635;28;20107;-74
2021/09/20 10:51:23;;;;;;;20.38;4.05;;;18.90;99.90;;;;;;5041404;28;20420;-73
2021/09/20 10:54:17;;;;;;;5.82;3.90;;;19.30;99.90;;;;;;5045505;28;20052;-75
2021/09/20 10:56:49;;;;;;;6.00;3.90;;;19.40;99.90;;;;;;5042463;28;20059;-74
2021/09/20 10:59:25;;;;;;;8.70;4.10;;;20.30;99.90;;;;;;5042938;28;20044;-74
2021/09/20 11:01:57;;;;;;;6.10;3.90;;;21.10;99.90;;;;;;5045079;28;20087;-74
2021/09/20 11:04:29;;;;;;;6.38;3.80;;;20.50;99.90;;;;;;5043997;28;20102;-75
2021/09/20 11:07:05;;;;;;;6.05;3.50;;;19.80;99.90;;;;;;5047786;28;20063;-73
2021/09/20 11:09:53;;;;;;;6.47;3.90;;;22.00;99.90;;;;;;5045825;28;20141;-73
2021/09/20 11:12:24;;;;;;;5.78;3.65;;;25.40;99.90;;;;;;5042588;28;20057;-73
2021/09/20 11:15:07;;;;;;;5.97;3.75;;;27.30;99.90;;;;;;5041648;28;20219;-73
2021/09/20 11:17:46;;;;;;;8.35;3.63;;;25.90;98.70;;;;;;5041324;28;20048;-74
2021/09/20 11:20:30;;;;;;;5.63;3.55;;;27.20;97.50;;;;;;5042261;28;20056;-74
2021/09/20 11:23:18;;;;;;;6.90;4.00;;;28.50;96.80;;;;;;5041360;28;20102;-74
2021/09/20 11:26:07;;;;;;;6.35;3.88;;;27.40;97.40;;;;;;5042605;28;20129;-74
2021/09/20 11:28:38;;;;;;;6.80;3.97;;;29.00;95.90;;;;;;5032469;28;20496;-74
2021/09/20 11:31:05;;;;;;;6.22;3.67;;;31.00;94.10;;;;;;5035076;28;20049;-75
2021/09/20 11:33:38;;;;;;;6.80;4.00;;;30.00;93.10;;;;;;5038954;28;20157;-74
2021/09/20 11:36:33;;;;;;;7.18;4.35;;;31.60;93.40;;;;;;5040580;28;20055;-74
2021/09/20 11:39:10;;;;;;;8.70;3.95;;;33.40;91.80;;;;;;5025528;28;20153;-75
2021/09/20 11:41:37;;;;;;;7.53;4.13;;;33.00;90.70;;;;;;5041052;28;20515;-75
2021/09/20 11:44:06;;;;;;;6.47;4.00;;;32.20;92.20;;;;;;5042621;28;20572;-74
2021/09/20 11:46:33;;;;;;;6.03;4.15;;;31.70;92.20;;;;;;5036073;28;20052;-76
2021/09/20 11:49:08;;;;;;;6.25;3.95;;;30.50;90.90;;;;;;5028000;28;21106;-76
2021/09/20 11:51:37;;;;;;;6.72;4.30;;;26.90;91.70;;;;;;5034977;28;20168;-76
2021/09/20 11:54:04;;;;;;;8.95;4.03;;;23.80;95.10;;;;;;5034611;28;20052;-76
2021/09/20 11:56:31;;;;;;;6.32;4.22;;;23.70;95.90;;;;;;5031643;28;20053;-74
2021/09/20 11:59:00;;;;;;;6.15;4.40;;;23.00;96.90;;;;;;5033470;28;20049;-76
2021/09/20 12:01:29;;;;;;;6.07;4.20;;;24.10;97.20;;;;;;5032895;28;20525;-74
2021/09/20 12:03:59;;;;;;;6.25;4.00;;;26.60;95.50;;;;;;5039310;28;20138;-76
2021/09/20 12:06:30;;;;;;;6.18;4.32;;;27.20;94.30;;;;;;5041276;28;20750;-74
2021/09/20 12:08:59;;;;;;;6.57;4.45;;;27.30;93.20;;;;;;5038490;28;20049;-76
2021/09/20 12:11:28;;;;;;;7.25;3.80;;;25.80;93.70;;;;;;5041136;28;20044;-74
2021/09/20 12:13:56;;;;;;;6.40;4.13;;;26.90;94.50;;;;;;5042108;28;20044;-76
2021/09/20 12:16:25;;;;;;;6.93;3.70;;;26.40;92.60;;;;;;5041100;28;20480;-74
2021/09/20 12:18:54;;;;;;;6.78;3.78;;;26.10;93.10;;;;;;5041240;28;20048;-75
2021/09/20 12:21:21;;;;;;;9.82;4.50;;;25.40;91.80;;;;;;5040095;28;20523;-75
2021/09/20 12:23:50;;;;;;;7.90;4.50;;;24.60;94.00;;;;;;5040218;28;20576;-75
2021/09/20 12:26:19;;;;;;;6.50;3.83;;;24.80;93.10;;;;;;5041368;28;20075;-74
2021/09/20 12:28:52;;;;;;;6.40;3.83;;;23.80;94.30;;;;;;5035588;28;20052;-75
2021/09/20 12:31:22;;;;;;;9.18;3.88;;;25.60;94.90;;;;;;5037989;28;20041;-76
2021/09/20 12:33:53;;;;;;;8.75;4.07;;;26.30;95.10;;;;;;5040316;28;20143;-75
2021/09/20 12:36:26;;;;;;;7.55;4.35;;;25.30;94.10;;;;;;5041452;28;21201;-74
2021/09/20 12:39:09;;;;;;;7.55;4.18;;;23.90;94.40;;;;;;5040667;28;20083;-77
2021/09/20 12:41:38;;;;;;;7.72;4.20;;;23.00;96.70;;;;;;5040639;28;20441;-75
2021/09/20 12:44:07;;;;;;;6.63;4.35;;;22.10;97.40;;;;;;5041758;28;20080;-75
2021/09/20 12:46:36;;;;;;;8.05;4.07;;;21.70;97.60;;;;;;5039173;28;20044;-74
2021/09/20 12:49:06;;;;;;;6.30;3.92;;;23.20;97.10;;;;;;5043500;28;20052;-74